Time;durP1;ratioP1;P1;durP2;ratioP2;P2;SDS_P1;SDS_P2;PMS_P1;PMS_P2;Temp;Humidity;BMP_temperature;BMP_pressure;BME280_temperature;BME280_humidity;BME280_pressure;Samples;Min_cycle;Max_cycle;Signal;HPM_P1;HPM_P2
2022/03/10 00:02:17;;;;;;;9.18;4.55;;;-1.40;93.80;;;;;;5075373;28;20335;-70
2022/03/10 00:04:43;;;;;;;8.55;4.45;;;-1.50;93.80;;;;;;5075336;28;20012;-70
2022/03/10 00:07:09;;;;;;;9.55;4.25;;;-1.40;93.90;;;;;;5075410;28;20024;-70
2022/03/10 00:09:34;;;;;;;8.07;3.90;;;-1.50;94.00;;;;;;5075292;28;20024;-70
2022/03/10 00:12:01;;;;;;;9.48;3.85;;;-1.50;94.00;;;;;;5076082;28;20353;-70
2022/03/10 00:14:27;;;;;;;6.97;3.50;;;-1.50;94.00;;;;;;5075950;28;20051;-70
2022/03/10 00:16:53;;;;;;;6.85;3.70;;;-1.50;94.10;;;;;;5075240;28;20028;-70
2022/03/10 00:19:20;;;;;;;7.22;3.90;;;-1.50;94.10;;;;;;5074765;28;20095;-70
2022/03/10 00:21:47;;;;;;;6.40;3.20;;;-1.50;94.10;;;;;;5075052;28;20025;-70
2022/03/10 00:24:14;;;;;;;7.85;3.80;;;-1.50;94.10;;;;;;5074752;28;20042;-70
2022/03/10 00:26:41;;;;;;;6.70;3.47;;;-1.50;94.20;;;;;;5075064;28;20021;-70
2022/03/10 00:29:07;;;;;;;7.03;3.38;;;-1.50;94.10;;;;;;5074674;28;20024;-70
2022/03/10 00:31:33;;;;;;;7.78;3.63;;;-1.60;94.00;;;;;;5074686;28;20012;-70
2022/03/10 00:33:59;;;;;;;7.32;3.17;;;-1.60;94.10;;;;;;5075161;28;20108;-70
2022/03/10 00:36:25;;;;;;;6.22;2.92;;;-1.70;94.20;;;;;;5074667;28;20354;-70
2022/03/10 00:38:51;;;;;;;7.53;3.45;;;-1.70;94.30;;;;;;5074573;28;20330;-70
2022/03/10 00:41:17;;;;;;;8.77;3.50;;;-1.70;94.50;;;;;;5074816;28;20070;-70
2022/03/10 00:43:42;;;;;;;7.30;3.50;;;-1.80;94.70;;;;;;5074949;28;20337;-70
2022/03/10 00:46:08;;;;;;;8.50;3.75;;;-1.80;95.20;;;;;;5073347;28;20431;-70
2022/03/10 00:48:34;;;;;;;10.13;4.40;;;-1.80;94.90;;;;;;5074902;28;20060;-70
2022/03/10 00:51:00;;;;;;;10.38;4.10;;;-1.90;94.60;;;;;;5073307;28;20029;-70
2022/03/10 00:53:26;;;;;;;8.35;3.70;;;-1.90;94.50;;;;;;5074381;28;20082;-70
2022/03/10 00:55:51;;;;;;;8.20;3.45;;;-2.00;94.40;;;;;;5072929;28;20028;-70
2022/03/10 00:58:17;;;;;;;8.68;3.40;;;-2.10;94.40;;;;;;5074003;28;20037;-70
2022/03/10 01:00:42;;;;;;;6.38;3.20;;;-2.10;94.40;;;;;;5074156;28;20032;-70
2022/03/10 01:03:08;;;;;;;7.05;3.45;;;-2.10;94.50;;;;;;5074553;28;20373;-70
2022/03/10 01:05:34;;;;;;;8.30;3.67;;;-2.20;94.60;;;;;;5074237;28;20027;-70
2022/03/10 01:08:00;;;;;;;7.32;3.33;;;-2.10;94.80;;;;;;5074323;28;20025;-70
2022/03/10 01:10:26;;;;;;;9.27;3.97;;;-2.20;95.00;;;;;;5074331;28;20353;-70
2022/03/10 01:12:52;;;;;;;6.82;3.67;;;-2.20;95.10;;;;;;5073528;28;20025;-70
2022/03/10 01:15:23;;;;;;;6.75;3.33;;;-2.20;95.20;;;;;;5074442;28;20562;-70
2022/03/10 01:17:49;;;;;;;6.43;2.92;;;-2.20;95.40;;;;;;5072664;28;20492;-70
2022/03/10 01:20:16;;;;;;;7.18;3.17;;;-2.20;95.50;;;;;;5074089;28;20039;-70
2022/03/10 01:22:42;;;;;;;5.88;2.92;;;-2.20;95.50;;;;;;5074090;28;20361;-70
2022/03/10 01:25:08;;;;;;;8.25;3.47;;;-2.20;95.50;;;;;;5072781;28;20503;-70
2022/03/10 01:27:35;;;;;;;7.53;3.65;;;-2.20;95.50;;;;;;5074177;28;20078;-70
2022/03/10 01:30:01;;;;;;;10.70;4.40;;;-2.30;95.50;;;;;;5073995;28;20423;-70
2022/03/10 01:32:26;;;;;;;7.95;3.92;;;-2.30;95.60;;;;;;5074166;28;20047;-71
2022/03/10 01:34:52;;;;;;;8.75;3.72;;;-2.40;95.60;;;;;;5074448;28;20532;-70
2022/03/10 01:37:19;;;;;;;6.32;3.33;;;-2.40;95.60;;;;;;5074209;28;20025;-70
2022/03/10 01:39:45;;;;;;;5.45;3.08;;;-2.40;95.70;;;;;;5074081;28;20493;-71
2022/03/10 01:42:11;;;;;;;8.30;3.33;;;-2.50;95.70;;;;;;5073828;28;20028;-71
2022/03/10 01:44:37;;;;;;;12.23;4.13;;;-2.50;95.90;;;;;;5073439;28;20016;-71
2022/03/10 01:47:05;;;;;;;11.25;4.10;;;-2.50;96.50;;;;;;5073599;28;20021;-71
2022/03/10 01:49:34;;;;;;;10.40;4.18;;;-2.60;96.30;;;;;;5071908;28;20024;-70
2022/03/10 01:52:01;;;;;;;11.90;4.97;;;-2.60;96.20;;;;;;5073594;28;20468;-70
2022/03/10 01:54:27;;;;;;;10.15;4.93;;;-2.70;96.10;;;;;;5072114;28;20028;-70
2022/03/10 01:56:53;;;;;;;11.57;4.82;;;-2.80;96.40;;;;;;5073383;28;20047;-71
2022/03/10 01:59:20;;;;;;;10.18;4.75;;;-2.80;96.50;;;;;;5073082;28;20032;-70
2022/03/10 02:01:46;;;;;;;9.75;5.00;;;-2.90;96.50;;;;;;5073223;28;20078;-70
2022/03/10 02:04:13;;;;;;;10.40;4.63;;;-2.90;96.50;;;;;;5073486;28;20362;-70
2022/03/10 02:06:39;;;;;;;11.00;5.05;;;-2.90;96.50;;;;;;5073541;28;20078;-70
2022/03/10 02:11:50;;;;;;;9.23;4.50;;;-2.90;96.50;;;;;;5073848;28;20035;-70
2022/03/10 02:19:45;;;;;;;9.30;3.42;;;-2.90;97.30;;;;;;5073456;28;20054;-70
2022/03/10 02:22:13;;;;;;;7.35;3.08;;;-3.00;97.50;;;;;;5072463;28;20027;-70
2022/03/10 02:24:41;;;;;;;6.93;3.30;;;-3.00;97.60;;;;;;5073172;28;20392;-70
2022/03/10 02:27:19;;;;;;;9.27;3.75;;;-2.90;97.60;;;;;;5073082;28;20021;-70
2022/03/10 02:29:46;;;;;;;8.05;3.47;;;-3.00;97.70;;;;;;5072909;28;20100;-70
2022/03/10 02:32:13;;;;;;;6.95;3.80;;;-3.00;97.80;;;;;;5073322;28;20028;-70
2022/03/10 02:34:39;;;;;;;8.25;3.67;;;-3.00;97.70;;;;;;5073033;28;20028;-70
2022/03/10 02:37:06;;;;;;;13.30;3.35;;;-3.00;97.70;;;;;;5073011;28;20028;-71
2022/03/10 02:39:32;;;;;;;7.82;3.15;;;-3.00;97.70;;;;;;5072724;28;20060;-70
2022/03/10 02:41:58;;;;;;;8.75;3.13;;;-3.00;97.80;;;;;;5072701;28;20352;-71
2022/03/10 02:44:24;;;;;;;6.50;2.67;;;-3.00;97.70;;;;;;5072728;28;20100;-71
2022/03/10 02:46:51;;;;;;;6.95;3.00;;;-3.00;97.70;;;;;;5072721;28;20385;-71
2022/03/10 02:49:17;;;;;;;6.57;3.17;;;-3.00;97.80;;;;;;5072662;28;20404;-70
2022/03/10 02:51:43;;;;;;;8.43;3.38;;;-3.00;97.80;;;;;;5072636;28;20028;-71
2022/03/10 02:54:09;;;;;;;8.20;3.70;;;-3.00;97.90;;;;;;5073184;28;20059;-71
2022/03/10 02:56:34;;;;;;;8.52;3.72;;;-3.00;98.00;;;;;;5073463;28;20052;-71
2022/03/10 02:59:00;;;;;;;8.05;3.47;;;-3.00;98.00;;;;;;5073693;28;20059;-71
2022/03/10 03:01:26;;;;;;;7.43;3.97;;;-3.00;98.10;;;;;;5073088;28;20049;-71
2022/03/10 03:03:51;;;;;;;10.40;4.53;;;-3.00;98.30;;;;;;5072678;28;20027;-71
2022/03/10 03:06:19;;;;;;;9.25;5.10;;;-3.10;98.40;;;;;;5072560;28;20024;-71
2022/03/10 03:08:45;;;;;;;10.38;4.03;;;-3.20;98.40;;;;;;5072173;28;20017;-71
2022/03/10 03:11:10;;;;;;;9.75;4.57;;;-3.20;98.30;;;;;;5072255;28;20092;-71
2022/03/10 03:13:36;;;;;;;7.80;3.63;;;-3.30;98.20;;;;;;5072076;28;20030;-71
2022/03/10 03:16:02;;;;;;;10.40;4.22;;;-3.30;98.10;;;;;;5072378;28;20050;-71
2022/03/10 03:18:28;;;;;;;13.00;5.43;;;-3.30;98.10;;;;;;5072242;28;20043;-71
2022/03/10 03:20:53;;;;;;;13.75;4.78;;;-3.30;98.10;;;;;;5072137;28;20441;-71
2022/03/10 03:23:19;;;;;;;11.55;4.68;;;-3.30;98.20;;;;;;5070665;28;20032;-71
2022/03/10 03:25:45;;;;;;;8.23;4.47;;;-3.40;98.60;;;;;;5072128;28;20411;-71
2022/03/10 03:28:10;;;;;;;9.38;3.95;;;-3.40;98.60;;;;;;5072030;28;20020;-72
2022/03/10 03:30:36;;;;;;;8.05;3.75;;;-3.40;98.70;;;;;;5071967;28;20024;-72
2022/03/10 03:33:02;;;;;;;7.45;3.95;;;-3.40;98.60;;;;;;5072185;28;20036;-71
2022/03/10 03:35:28;;;;;;;11.38;4.50;;;-3.40;98.50;;;;;;5072978;28;20412;-71
2022/03/10 03:37:53;;;;;;;8.57;3.90;;;-3.40;98.50;;;;;;5076232;28;20139;-72
2022/03/10 03:40:19;;;;;;;6.63;3.40;;;-3.50;98.50;;;;;;5076144;28;20036;-72
2022/03/10 03:42:44;;;;;;;9.48;4.05;;;-3.50;98.50;;;;;;5075823;28;20028;-72
2022/03/10 03:45:11;;;;;;;6.88;3.28;;;-3.50;98.40;;;;;;5075840;28;20029;-72
2022/03/10 03:47:36;;;;;;;7.47;3.13;;;-3.50;98.40;;;;;;5074630;28;20074;-72
2022/03/10 03:50:04;;;;;;;7.82;3.30;;;-3.50;98.50;;;;;;5075805;28;20020;-72
2022/03/10 03:52:29;;;;;;;7.65;3.95;;;-3.50;98.60;;;;;;5076429;28;20384;-71
2022/03/10 03:54:55;;;;;;;8.13;3.47;;;-3.50;98.80;;;;;;5076534;28;20021;-72
2022/03/10 03:57:21;;;;;;;7.30;3.10;;;-3.50;98.90;;;;;;5076396;28;20106;-72
2022/03/10 03:59:46;;;;;;;7.25;4.07;;;-3.50;99.20;;;;;;5077024;28;20083;-72
2022/03/10 04:02:12;;;;;;;9.32;4.68;;;-3.60;98.60;;;;;;5075990;28;20027;-72
2022/03/10 04:04:38;;;;;;;9.02;4.20;;;-3.70;98.30;;;;;;5075800;28;20017;-72
2022/03/10 04:07:04;;;;;;;10.18;4.53;;;-3.80;98.10;;;;;;5075808;28;20357;-72
2022/03/10 04:09:29;;;;;;;9.35;4.63;;;-3.80;98.10;;;;;;5075935;28;20033;-72
2022/03/10 04:11:55;;;;;;;11.18;5.15;;;-3.90;98.40;;;;;;5075642;28;20025;-72
2022/03/10 04:14:21;;;;;;;9.23;4.32;;;-3.90;98.60;;;;;;5075774;28;20021;-72
2022/03/10 04:16:47;;;;;;;9.90;4.70;;;-4.00;98.60;;;;;;5075947;28;20023;-72
2022/03/10 04:19:12;;;;;;;7.70;4.25;;;-4.00;98.70;;;;;;5075746;28;20031;-72
2022/03/10 04:21:38;;;;;;;9.95;3.67;;;-4.00;98.80;;;;;;5075366;28;20025;-72
2022/03/10 04:24:04;;;;;;;9.32;3.60;;;-4.00;98.90;;;;;;5075902;28;20024;-72
2022/03/10 04:26:30;;;;;;;8.38;4.15;;;-4.10;99.30;;;;;;5075919;28;20524;-72
2022/03/10 04:28:56;;;;;;;12.45;4.38;;;-4.10;99.20;;;;;;5075458;28;20067;-72
2022/03/10 04:31:22;;;;;;;10.98;4.88;;;-4.10;99.20;;;;;;5075166;28;20107;-72
2022/03/10 04:33:47;;;;;;;10.23;4.43;;;-4.20;99.10;;;;;;5074831;28;20031;-72
2022/03/10 04:36:13;;;;;;;9.13;4.10;;;-4.20;99.30;;;;;;5074764;28;20028;-72
2022/03/10 04:38:39;;;;;;;10.48;4.78;;;-4.20;99.60;;;;;;5074885;28;20047;-72
2022/03/10 04:41:04;;;;;;;10.07;4.72;;;-4.30;99.90;;;;;;5074978;28;20482;-72
2022/03/10 04:43:30;;;;;;;12.27;5.18;;;-4.30;99.90;;;;;;5074629;28;20071;-72
2022/03/10 04:45:57;;;;;;;10.15;4.40;;;-4.30;99.70;;;;;;5074392;28;20124;-72
2022/03/10 04:48:23;;;;;;;10.43;4.10;;;-4.40;99.60;;;;;;5074831;28;20016;-72
2022/03/10 04:50:48;;;;;;;11.23;4.28;;;-4.40;99.60;;;;;;5074791;28;20484;-72
2022/03/10 04:53:14;;;;;;;7.82;4.10;;;-4.40;99.80;;;;;;5073668;28;20376;-72
2022/03/10 04:55:41;;;;;;;10.70;3.88;;;-4.40;99.90;;;;;;5074509;28;20029;-73
2022/03/10 04:58:08;;;;;;;6.93;4.07;;;-4.40;99.90;;;;;;5074289;28;20063;-73
2022/03/10 05:00:34;;;;;;;7.00;3.63;;;-4.40;99.90;;;;;;5074328;28;20030;-73
2022/03/10 05:02:59;;;;;;;9.30;3.47;;;-4.30;99.90;;;;;;5073568;28;20029;-73
2022/03/10 05:05:25;;;;;;;7.97;3.50;;;-4.30;99.90;;;;;;5074779;28;20024;-73
2022/03/10 05:07:51;;;;;;;8.13;3.80;;;-4.30;99.90;;;;;;5073398;28;20020;-73
2022/03/10 05:10:18;;;;;;;7.43;3.78;;;-4.30;99.90;;;;;;5074437;28;20012;-72
2022/03/10 05:12:53;;;;;;;7.80;4.10;;;-4.40;99.90;;;;;;5074240;28;20032;-72
2022/03/10 05:15:21;;;;;;;12.02;4.95;;;-4.50;99.90;;;;;;5073787;28;20032;-73
2022/03/10 05:17:48;;;;;;;56.05;14.93;;;-4.60;99.90;;;;;;5074074;28;20028;-72
2022/03/10 05:20:14;;;;;;;192.27;49.30;;;-4.60;99.90;;;;;;5074642;28;20364;-72
2022/03/10 05:22:55;;;;;;;343.25;87.43;;;-4.60;99.90;;;;;;5074041;28;20029;-72
2022/03/10 05:25:23;;;;;;;326.77;84.32;;;-4.50;99.90;;;;;;5072802;28;20123;-72
2022/03/10 05:27:50;;;;;;;141.93;38.08;;;-4.50;99.90;;;;;;5073139;28;20034;-72
2022/03/10 05:30:18;;;;;;;39.35;12.38;;;-4.50;99.90;;;;;;5074610;28;20060;-71
2022/03/10 05:32:44;;;;;;;22.45;7.90;;;-4.50;99.90;;;;;;5072472;28;20024;-71
2022/03/10 05:35:14;;;;;;;17.17;5.80;;;-4.50;99.90;;;;;;5072352;28;20154;-71
2022/03/10 05:37:41;;;;;;;12.07;5.70;;;-4.50;99.90;;;;;;5074706;28;20035;-71
2022/03/10 05:40:08;;;;;;;10.85;4.30;;;-4.50;99.90;;;;;;5075086;28;20036;-71
2022/03/10 05:42:37;;;;;;;10.52;5.55;;;-4.70;99.90;;;;;;5073209;28;20046;-71
2022/03/10 05:45:03;;;;;;;13.50;5.75;;;-4.80;99.90;;;;;;5074365;28;20105;-71
2022/03/10 05:47:28;;;;;;;13.48;5.72;;;-4.80;99.90;;;;;;5074863;28;20070;-71
2022/03/10 05:49:54;;;;;;;11.50;5.50;;;-4.80;99.90;;;;;;5074182;28;20028;-71
2022/03/10 05:52:20;;;;;;;12.48;6.60;;;-4.90;99.90;;;;;;5074210;28;20384;-71
2022/03/10 05:54:45;;;;;;;14.13;6.60;;;-4.80;99.90;;;;;;5074195;28;20028;-71
2022/03/10 05:57:11;;;;;;;11.43;5.95;;;-4.80;99.90;;;;;;5073820;28;20497;-71
2022/03/10 05:59:37;;;;;;;10.30;5.45;;;-4.80;99.90;;;;;;5074258;28;20023;-71
2022/03/10 06:02:03;;;;;;;10.93;5.15;;;-4.90;99.90;;;;;;5073975;28;20035;-71
2022/03/10 06:04:28;;;;;;;13.25;5.28;;;-4.90;99.90;;;;;;5074540;28;20411;-71
2022/03/10 06:06:54;;;;;;;15.90;5.65;;;-4.90;99.90;;;;;;5073914;28;20043;-71
2022/03/10 06:09:19;;;;;;;11.93;5.78;;;-4.80;99.90;;;;;;5073622;28;20024;-71
2022/03/10 06:11:45;;;;;;;10.85;5.60;;;-4.80;99.90;;;;;;5073950;28;20021;-71
2022/03/10 06:14:11;;;;;;;14.95;6.00;;;-4.70;99.90;;;;;;5073880;28;20024;-71
2022/03/10 06:16:38;;;;;;;12.32;5.25;;;-4.70;99.90;;;;;;5072543;28;20384;-71
2022/03/10 06:19:04;;;;;;;10.32;4.90;;;-4.70;99.90;;;;;;5073688;28;20048;-71
2022/03/10 06:21:29;;;;;;;16.65;5.78;;;-4.70;99.90;;;;;;5072487;28;20413;-71
2022/03/10 06:23:55;;;;;;;14.80;5.30;;;-4.80;99.90;;;;;;5073921;28;20049;-71
2022/03/10 06:26:21;;;;;;;13.65;5.00;;;-4.90;99.90;;;;;;5073924;28;20017;-71
2022/03/10 06:28:47;;;;;;;13.00;5.35;;;-4.90;99.90;;;;;;5073592;28;20033;-71
2022/03/10 06:31:12;;;;;;;13.25;5.60;;;-5.00;99.90;;;;;;5073628;28;20027;-71
2022/03/10 06:33:38;;;;;;;15.88;5.88;;;-4.90;99.90;;;;;;5074269;28;20024;-71
2022/03/10 06:36:05;;;;;;;14.00;5.25;;;-5.00;99.90;;;;;;5073497;28;20028;-70
2022/03/10 06:38:31;;;;;;;12.60;5.03;;;-5.00;99.90;;;;;;5073962;28;20413;-71
2022/03/10 06:40:57;;;;;;;13.15;5.10;;;-5.00;99.90;;;;;;5073277;28;20052;-70
2022/03/10 06:43:23;;;;;;;15.25;6.30;;;-5.00;99.90;;;;;;5073312;28;20477;-70
2022/03/10 06:45:48;;;;;;;18.55;6.10;;;-5.00;99.90;;;;;;5073360;28;20025;-70
2022/03/10 06:48:14;;;;;;;13.90;5.95;;;-4.90;99.90;;;;;;5073373;28;20037;-70
2022/03/10 06:50:40;;;;;;;14.45;6.13;;;-4.90;99.90;;;;;;5073282;28;20032;-70
2022/03/10 06:53:06;;;;;;;16.08;6.15;;;-4.90;99.90;;;;;;5073372;28;20056;-70
2022/03/10 06:55:31;;;;;;;14.02;6.07;;;-4.90;99.90;;;;;;5073236;28;20033;-70
2022/03/10 06:57:57;;;;;;;20.05;6.72;;;-4.90;99.90;;;;;;5073105;28;20074;-70
2022/03/10 07:00:24;;;;;;;19.73;5.50;;;-4.80;99.90;;;;;;5073115;28;20039;-70
2022/03/10 07:02:52;;;;;;;13.65;5.63;;;-4.80;99.90;;;;;;5073087;28;20538;-70
2022/03/10 07:05:18;;;;;;;23.92;6.60;;;-4.80;99.90;;;;;;5073137;28;20021;-70
2022/03/10 07:07:43;;;;;;;17.25;6.22;;;-4.70;99.90;;;;;;5071922;28;20496;-70
2022/03/10 07:10:10;;;;;;;14.70;6.03;;;-4.50;99.90;;;;;;5073367;28;20040;-70
2022/03/10 07:12:37;;;;;;;14.38;5.82;;;-4.40;99.90;;;;;;5077212;28;20091;-70
2022/03/10 07:15:07;;;;;;;14.45;5.63;;;-4.30;99.90;;;;;;5077219;28;20039;-70
2022/03/10 07:17:33;;;;;;;14.43;5.50;;;-4.20;99.90;;;;;;5077037;28;20103;-70
2022/03/10 07:19:58;;;;;;;10.70;5.50;;;-4.10;99.90;;;;;;5076960;28;20557;-70
2022/03/10 07:22:24;;;;;;;19.00;8.50;;;-4.00;99.90;;;;;;5077016;28;20029;-71
2022/03/10 07:24:50;;;;;;;20.35;7.45;;;-4.00;99.90;;;;;;5077305;28;20108;-71
2022/03/10 07:27:16;;;;;;;17.00;6.10;;;-4.00;99.90;;;;;;5076985;28;20481;-71
2022/03/10 07:29:42;;;;;;;14.15;6.72;;;-3.90;99.90;;;;;;5076870;28;20027;-70
2022/03/10 07:32:08;;;;;;;13.05;6.25;;;-3.90;99.90;;;;;;5077226;28;20023;-71
2022/03/10 07:34:34;;;;;;;21.10;7.80;;;-3.90;99.90;;;;;;5077207;28;20384;-71
2022/03/10 07:37:00;;;;;;;22.33;9.18;;;-3.80;99.90;;;;;;5076742;28;20021;-70
2022/03/10 07:39:26;;;;;;;21.75;8.23;;;-3.70;99.90;;;;;;5076806;28;20055;-70
2022/03/10 07:41:53;;;;;;;27.10;9.75;;;-3.60;99.90;;;;;;5076624;28;20055;-71
2022/03/10 07:44:19;;;;;;;23.13;9.93;;;-3.60;99.90;;;;;;5076803;28;20020;-71
2022/03/10 07:46:45;;;;;;;24.42;9.38;;;-3.50;99.90;;;;;;5076652;28;20020;-71
2022/03/10 07:49:11;;;;;;;23.20;9.75;;;-3.40;99.90;;;;;;5076557;28;20028;-70
2022/03/10 07:51:37;;;;;;;23.98;10.82;;;-3.30;99.90;;;;;;5076584;28;20078;-70
2022/03/10 07:54:03;;;;;;;22.42;9.73;;;-3.30;99.90;;;;;;5076480;28;20025;-71
2022/03/10 07:56:28;;;;;;;25.73;9.00;;;-3.20;99.90;;;;;;5076152;28;20025;-71
2022/03/10 07:58:54;;;;;;;23.48;8.73;;;-3.10;99.90;;;;;;5076642;28;20067;-70
2022/03/10 08:01:20;;;;;;;20.38;8.45;;;-3.00;99.90;;;;;;5076711;28;20028;-71
2022/03/10 08:03:47;;;;;;;17.80;8.32;;;-2.90;99.90;;;;;;5076949;28;20032;-71
2022/03/10 08:06:13;;;;;;;19.02;8.13;;;-2.70;99.90;;;;;;5076248;28;20016;-70
2022/03/10 08:08:39;;;;;;;16.38;8.30;;;-2.70;99.90;;;;;;5076650;28;20035;-70
2022/03/10 08:11:08;;;;;;;18.08;7.95;;;-2.60;99.90;;;;;;5076167;28;20484;-71
2022/03/10 08:13:34;;;;;;;21.33;8.40;;;-2.40;99.90;;;;;;5076144;28;20024;-71
2022/03/10 08:16:00;;;;;;;22.73;8.35;;;-2.30;99.90;;;;;;5076404;28;20036;-71
2022/03/10 08:18:28;;;;;;;18.35;8.80;;;-2.20;99.90;;;;;;5076045;28;20021;-71
2022/03/10 08:20:55;;;;;;;20.85;9.05;;;-2.10;99.90;;;;;;5075325;28;20384;-70
2022/03/10 08:23:21;;;;;;;19.45;8.52;;;-2.00;99.90;;;;;;5074428;28;20028;-70
2022/03/10 08:25:47;;;;;;;31.83;14.88;;;-1.90;99.90;;;;;;5075969;28;20024;-71
2022/03/10 08:28:13;;;;;;;26.70;13.00;;;-1.80;99.90;;;;;;5076218;28;20048;-71
2022/03/10 08:30:39;;;;;;;22.15;10.52;;;-1.70;99.90;;;;;;5075425;28;20534;-70
2022/03/10 08:33:05;;;;;;;26.48;9.68;;;-1.60;99.90;;;;;;5075808;28;20024;-71
2022/03/10 08:35:31;;;;;;;21.73;9.38;;;-1.40;99.90;;;;;;5075778;28;20021;-71
2022/03/10 08:37:57;;;;;;;24.33;10.57;;;-1.40;99.90;;;;;;5075639;28;20123;-71
2022/03/10 08:40:23;;;;;;;24.08;11.45;;;-1.20;99.90;;;;;;5074147;28;20060;-70
2022/03/10 08:42:50;;;;;;;29.48;11.48;;;-1.10;99.90;;;;;;5075764;28;20181;-71
2022/03/10 08:45:16;;;;;;;29.27;12.48;;;-1.00;99.90;;;;;;5075743;28;20509;-71
2022/03/10 08:47:43;;;;;;;34.22;13.15;;;-0.90;99.90;;;;;;5075455;28;20025;-71
2022/03/10 08:50:10;;;;;;;26.00;10.73;;;-0.70;99.90;;;;;;5075330;28;20370;-71
2022/03/10 08:52:36;;;;;;;21.35;10.45;;;-0.60;99.90;;;;;;5075464;28;20016;-71
2022/03/10 08:55:03;;;;;;;18.50;9.02;;;-0.50;99.30;;;;;;5075188;28;20036;-70
2022/03/10 08:57:29;;;;;;;14.48;8.85;;;-0.40;98.80;;;;;;5075154;28;20119;-70
2022/03/10 08:59:55;;;;;;;22.08;10.93;;;-0.30;98.60;;;;;;5075106;28;20103;-70
2022/03/10 09:02:20;;;;;;;29.77;15.45;;;-0.10;98.30;;;;;;5074694;28;20029;-70
2022/03/10 09:04:46;;;;;;;36.33;21.77;;;0.00;98.00;;;;;;5075092;28;20538;-70
2022/03/10 09:07:12;;;;;;;57.95;24.52;;;0.10;97.70;;;;;;5076049;28;20013;-70
2022/03/10 09:09:38;;;;;;;43.15;23.00;;;0.30;96.80;;;;;;5074895;28;20031;-70
2022/03/10 09:12:04;;;;;;;49.97;26.63;;;0.40;96.60;;;;;;5075241;28;20503;-71
2022/03/10 09:14:30;;;;;;;57.63;32.33;;;0.60;95.40;;;;;;5075234;28;20032;-71
2022/03/10 09:16:56;;;;;;;64.63;34.35;;;0.80;95.10;;;;;;5073616;28;20378;-71
2022/03/10 09:19:23;;;;;;;55.35;30.67;;;0.90;94.70;;;;;;5074639;28;20023;-70
2022/03/10 09:21:49;;;;;;;53.83;28.42;;;1.00;94.20;;;;;;5075025;28;20473;-71
2022/03/10 09:24:14;;;;;;;68.35;37.20;;;1.20;93.70;;;;;;5076847;28;20035;-71
2022/03/10 09:26:40;;;;;;;56.33;30.48;;;1.50;94.70;;;;;;5075395;28;20039;-71
2022/03/10 09:29:06;;;;;;;52.53;26.60;;;1.70;94.70;;;;;;5074971;28;20035;-71
2022/03/10 09:31:32;;;;;;;43.58;21.88;;;1.80;93.60;;;;;;5074819;28;20138;-71
2022/03/10 09:33:58;;;;;;;36.33;17.60;;;1.80;92.60;;;;;;5074270;28;20103;-71
2022/03/10 09:36:26;;;;;;;31.35;15.98;;;2.00;91.80;;;;;;5073196;28;20477;-71
2022/03/10 09:38:55;;;;;;;25.48;13.45;;;2.10;90.90;;;;;;5074355;28;20016;-70
2022/03/10 09:41:20;;;;;;;31.80;15.30;;;2.20;89.60;;;;;;5074248;28;20021;-71
2022/03/10 09:43:47;;;;;;;28.45;13.60;;;2.30;89.50;;;;;;5074149;28;20407;-72
2022/03/10 09:46:13;;;;;;;25.40;13.43;;;2.50;90.80;;;;;;5074335;28;20111;-71
2022/03/10 09:48:40;;;;;;;25.15;13.65;;;2.60;90.10;;;;;;5073962;28;20064;-70
2022/03/10 09:51:07;;;;;;;25.13;13.30;;;2.70;87.40;;;;;;5073828;28;20103;-70
2022/03/10 09:53:34;;;;;;;24.25;12.52;;;2.80;86.70;;;;;;5072670;28;20035;-70
2022/03/10 09:56:02;;;;;;;25.30;12.70;;;2.90;87.40;;;;;;5074150;28;20032;-70
2022/03/10 09:58:28;;;;;;;25.65;11.38;;;2.90;86.30;;;;;;5073904;28;20488;-70
2022/03/10 10:01:06;;;;;;;19.45;11.00;;;3.00;85.20;;;;;;5074010;28;20039;-70
2022/03/10 10:03:33;;;;;;;21.20;9.00;;;3.10;84.10;;;;;;5073922;28;20021;-70
2022/03/10 10:06:01;;;;;;;16.42;8.38;;;3.20;82.10;;;;;;5073910;28;20027;-70
2022/03/10 10:08:30;;;;;;;18.98;9.02;;;3.30;80.10;;;;;;5072666;28;20384;-70
2022/03/10 10:11:02;;;;;;;20.80;10.40;;;3.30;80.10;;;;;;5074103;28;20065;-69
2022/03/10 10:13:38;;;;;;;23.02;11.27;;;3.40;80.20;;;;;;5074075;28;20472;-69
2022/03/10 10:16:06;;;;;;;23.38;10.90;;;3.50;79.60;;;;;;5074037;28;20381;-69
2022/03/10 10:18:33;;;;;;;19.70;10.70;;;3.60;79.00;;;;;;5073708;28;20036;-69
2022/03/10 10:21:00;;;;;;;15.68;8.80;;;3.70;75.30;;;;;;5073585;28;20177;-69
2022/03/10 10:23:27;;;;;;;13.77;7.32;;;3.70;73.10;;;;;;5072265;28;20575;-69
2022/03/10 10:26:03;;;;;;;17.50;7.22;;;3.90;69.80;;;;;;5073348;28;20025;-68
2022/03/10 10:28:31;;;;;;;19.05;8.70;;;4.00;67.60;;;;;;5074095;28;20373;-68
2022/03/10 10:31:12;;;;;;;24.05;11.43;;;4.10;68.80;;;;;;5073115;28;20020;-68
2022/03/10 10:33:43;;;;;;;15.13;7.88;;;4.20;71.90;;;;;;5073567;28;20035;-68
2022/03/10 10:36:24;;;;;;;17.23;7.22;;;4.30;68.80;;;;;;5073584;28;20085;-68
2022/03/10 10:38:52;;;;;;;11.65;5.80;;;4.30;67.80;;;;;;5073465;28;20603;-68
2022/03/10 10:41:24;;;;;;;11.80;5.78;;;4.40;67.20;;;;;;5073378;28;20053;-68
2022/03/10 10:43:59;;;;;;;17.67;8.20;;;4.50;68.00;;;;;;5073075;28;20044;-68
2022/03/10 10:46:27;;;;;;;15.73;7.90;;;4.60;68.50;;;;;;5073432;28;20020;-68
2022/03/10 10:48:53;;;;;;;19.27;8.70;;;4.70;68.50;;;;;;5073272;28;20361;-68
2022/03/10 10:51:33;;;;;;;14.73;7.75;;;4.70;67.90;;;;;;5073564;28;20025;-68
2022/03/10 10:54:02;;;;;;;13.87;7.10;;;4.80;67.60;;;;;;5073775;28;20039;-69
2022/03/10 10:56:28;;;;;;;14.10;7.05;;;4.90;66.70;;;;;;5073227;28;20262;-69
2022/03/10 10:58:55;;;;;;;12.38;6.93;;;4.90;66.20;;;;;;5073465;28;20040;-69
2022/03/10 11:01:31;;;;;;;13.10;6.55;;;5.00;66.40;;;;;;5072784;28;20024;-69
2022/03/10 11:03:57;;;;;;;16.00;6.25;;;5.10;66.20;;;;;;5073152;28;20024;-69
2022/03/10 11:06:24;;;;;;;14.13;6.82;;;5.20;66.00;;;;;;5073443;28;20070;-69
2022/03/10 11:08:50;;;;;;;12.85;7.20;;;5.30;65.10;;;;;;5073352;28;20020;-69
2022/03/10 11:11:16;;;;;;;13.95;7.88;;;5.40;64.50;;;;;;5073325;28;20058;-69
2022/03/10 11:13:42;;;;;;;18.38;9.80;;;5.50;63.70;;;;;;5073570;28;20033;-69
2022/03/10 11:16:08;;;;;;;19.15;10.63;;;5.60;62.80;;;;;;5071854;28;20024;-69
2022/03/10 11:18:34;;;;;;;27.95;15.65;;;5.70;62.80;;;;;;5073038;28;20133;-69
2022/03/10 11:21:16;;;;;;;36.08;20.02;;;5.80;63.60;;;;;;5071670;28;20032;-69
2022/03/10 11:24:03;;;;;;;42.50;20.77;;;5.80;63.90;;;;;;5073126;28;20040;-69
2022/03/10 11:26:40;;;;;;;36.45;21.88;;;5.90;63.80;;;;;;5072896;28;20427;-69
2022/03/10 11:29:07;;;;;;;40.05;22.05;;;6.00;63.60;;;;;;5072909;28;20056;-69
2022/03/10 11:31:34;;;;;;;40.33;23.45;;;6.00;63.30;;;;;;5072957;28;20123;-70
2022/03/10 11:33:59;;;;;;;39.50;22.17;;;6.10;63.70;;;;;;5072766;28;20056;-70
2022/03/10 11:36:26;;;;;;;33.92;20.23;;;6.20;62.30;;;;;;5072762;28;20059;-70
2022/03/10 11:38:58;;;;;;;31.60;19.60;;;6.40;62.90;;;;;;5072872;28;20074;-70
2022/03/10 11:41:25;;;;;;;29.27;17.55;;;6.50;63.40;;;;;;5072870;28;20025;-70
2022/03/10 11:44:09;;;;;;;27.55;15.48;;;6.60;63.10;;;;;;5072728;28;20108;-70
2022/03/10 11:46:36;;;;;;;26.38;14.63;;;6.70;62.90;;;;;;5072800;28;20108;-70
2022/03/10 11:49:11;;;;;;;22.70;13.25;;;6.80;62.90;;;;;;5072729;28;20437;-70
2022/03/10 11:51:45;;;;;;;26.30;15.15;;;6.90;62.50;;;;;;5072694;28;20020;-70
2022/03/10 11:54:16;;;;;;;24.48;14.85;;;6.90;62.20;;;;;;5072727;28;20025;-71
2022/03/10 11:56:45;;;;;;;24.50;13.70;;;7.00;61.60;;;;;;5074887;28;20029;-71
2022/03/10 11:59:40;;;;;;;22.85;12.95;;;7.10;60.80;;;;;;5076194;28;20029;-71
2022/03/10 12:02:08;;;;;;;20.95;11.95;;;7.20;61.30;;;;;;5070435;28;20039;-71
2022/03/10 12:04:38;;;;;;;19.98;11.80;;;7.30;61.80;;;;;;5075880;28;20024;-71
2022/03/10 12:07:05;;;;;;;25.88;12.70;;;7.40;61.20;;;;;;5076489;28;20492;-71
2022/03/10 12:09:38;;;;;;;21.85;12.27;;;7.50;61.30;;;;;;5076048;28;20396;-71
2022/03/10 12:12:25;;;;;;;22.42;11.50;;;7.60;60.90;;;;;;5076155;28;20027;-71
2022/03/10 12:14:55;;;;;;;21.30;10.10;;;7.70;60.20;;;;;;5076104;28;20077;-71
2022/03/10 12:17:46;;;;;;;18.05;8.90;;;7.80;58.70;;;;;;5076158;28;20074;-71
2022/03/10 12:20:38;;;;;;;14.88;7.93;;;8.00;57.80;;;;;;5075937;28;20111;-71
2022/03/10 12:23:07;;;;;;;16.17;8.43;;;8.20;56.80;;;;;;5075837;28;20134;-71
2022/03/10 12:25:59;;;;;;;15.27;7.68;;;8.30;54.90;;;;;;5075791;28;20028;-70
2022/03/10 12:28:35;;;;;;;11.85;6.63;;;8.50;56.20;;;;;;5075956;28;20055;-70
2022/03/10 12:31:15;;;;;;;11.25;6.57;;;8.60;56.60;;;;;;5075874;28;20029;-70
2022/03/10 12:33:55;;;;;;;12.27;6.22;;;8.70;58.30;;;;;;5074222;28;20024;-70
2022/03/10 12:36:31;;;;;;;13.30;6.93;;;8.90;56.70;;;;;;5074395;28;20032;-70
2022/03/10 12:38:59;;;;;;;9.52;4.25;;;9.00;56.00;;;;;;5074297;28;20086;-70
2022/03/10 12:41:37;;;;;;;6.43;3.92;;;9.10;54.80;;;;;;5076226;28;20027;-69
2022/03/10 12:44:06;;;;;;;9.32;4.28;;;9.10;55.10;;;;;;5070653;28;20074;-70
2022/03/10 12:46:33;;;;;;;8.48;4.72;;;9.20;56.30;;;;;;5075431;28;20094;-70
2022/03/10 12:49:19;;;;;;;9.85;4.55;;;9.30;54.20;;;;;;5070534;28;20473;-70
2022/03/10 12:51:44;;;;;;;10.65;4.70;;;9.40;54.80;;;;;;5064484;28;20025;-70